Time;durP1;ratioP1;P1;durP2;ratioP2;P2;SDS_P1;SDS_P2;PMS_P1;PMS_P2;Temp;Humidity;BMP_temperature;BMP_pressure;BME280_temperature;BME280_humidity;BME280_pressure;Samples;Min_cycle;Max_cycle;Signal;HPM_P1;HPM_P2
2022/05/26 00:01:03;;;;;;;2.47;1.90;;;;;;;16.99;89.57;98314.44;5156834;27;20031;-84
2022/05/26 00:03:29;;;;;;;4.88;1.70;;;;;;;17.09;89.34;98316.06;5138788;27;20023;-83
2022/05/26 00:05:54;;;;;;;2.45;1.90;;;;;;;17.08;88.69;98311.66;5155991;27;20011;-86
2022/05/26 00:08:19;;;;;;;4.50;1.90;;;;;;;17.06;88.86;98331.34;5151528;27;20065;-84
2022/05/26 00:10:45;;;;;;;2.33;1.70;;;;;;;17.11;88.34;98330.34;5151332;27;20026;-86
2022/05/26 00:13:10;;;;;;;3.75;1.80;;;;;;;17.13;88.27;98339.94;5153386;27;20018;-85
2022/05/26 00:15:35;;;;;;;2.97;1.63;;;;;;;17.06;87.98;98328.59;5154711;27;20023;-83
2022/05/26 00:18:01;;;;;;;2.90;1.83;;;;;;;17.19;87.63;98348.06;5135714;27;20039;-86
2022/05/26 00:20:26;;;;;;;3.85;1.92;;;;;;;17.33;86.97;98343.97;5156757;27;20023;-85
2022/05/26 00:22:52;;;;;;;2.33;1.90;;;;;;;17.24;87.10;98345.13;5155810;27;20027;-85
2022/05/26 00:25:20;;;;;;;4.05;2.10;;;;;;;17.31;86.74;98346.25;5138514;27;20056;-84
2022/05/26 00:27:45;;;;;;;4.38;2.00;;;;;;;17.33;86.36;98337.63;5155678;27;20054;-84
2022/05/26 00:30:11;;;;;;;2.10;1.73;;;;;;;17.45;86.35;98368.97;5157286;27;20019;-83
2022/05/26 00:32:37;;;;;;;2.85;1.80;;;;;;;17.31;86.52;98362.03;5157261;27;20015;-84
2022/05/26 00:35:02;;;;;;;5.10;1.90;;;;;;;17.23;86.20;98346.28;5155880;27;20011;-83
2022/05/26 00:37:29;;;;;;;2.83;2.03;;;;;;;17.25;87.04;98363.34;5157571;27;20026;-82
2022/05/26 00:39:54;;;;;;;2.40;1.85;;;;;;;17.22;87.47;98370.34;5157619;27;20095;-84
2022/05/26 00:42:19;;;;;;;2.90;2.00;;;;;;;17.35;87.39;98379.59;5157748;27;20029;-85
2022/05/26 00:44:45;;;;;;;2.22;1.83;;;;;;;17.46;86.86;98383.63;5157917;27;20015;-85
2022/05/26 00:47:23;;;;;;;2.40;1.92;;;;;;;17.47;85.83;98383.31;5156743;27;20031;-85
2022/05/26 00:49:58;;;;;;;2.10;1.70;;;;;;;17.63;85.04;98380.84;5138225;27;20023;-83
2022/05/26 00:52:39;;;;;;;3.40;1.63;;;;;;;17.64;84.61;98388.00;5137310;27;20087;-84
2022/05/26 00:55:13;;;;;;;2.88;2.08;;;;;;;17.56;84.80;98386.88;5157173;27;20033;-82
2022/05/26 00:57:49;;;;;;;4.80;2.38;;;;;;;17.55;84.71;98370.59;5138067;27;20023;-86
2022/05/26 01:00:19;;;;;;;2.65;1.92;;;;;;;17.59;84.36;98364.09;5149898;27;20032;-86
2022/05/26 01:03:07;;;;;;;3.95;2.00;;;;;;;17.65;84.50;98356.41;5138437;28;20039;-83
2022/05/26 01:05:44;;;;;;;2.58;1.73;;;;;;;17.53;84.42;98348.78;5152266;28;20565;-83
2022/05/26 01:08:25;;;;;;;4.20;1.98;;;;;;;17.49;83.90;98361.66;5153293;28;20023;-86
2022/05/26 01:10:52;;;;;;;2.42;1.63;;;;;;;17.50;83.92;98368.81;5134791;28;20024;-84
2022/05/26 01:13:19;;;;;;;2.03;1.70;;;;;;;17.47;84.15;98360.38;5154042;28;20027;-85
2022/05/26 01:15:56;;;;;;;3.67;2.00;;;;;;;17.54;84.48;98371.75;5153646;28;20110;-83
2022/05/26 01:18:56;;;;;;;2.80;2.00;;;;;;;17.41;84.87;98356.16;5133800;28;20031;-83
2022/05/26 01:21:31;;;;;;;3.05;2.08;;;;;;;17.46;85.15;98358.72;5130135;28;20028;-82
2022/05/26 01:23:59;;;;;;;3.70;1.90;;;;;;;17.51;84.59;98355.81;5148567;28;20058;-81
2022/05/26 01:26:46;;;;;;;2.63;2.00;;;;;;;17.28;85.85;98351.63;5131321;28;20400;-81
2022/05/26 01:30:03;;;;;;;2.53;1.90;;;;;;;17.35;85.88;98369.34;5153594;28;20015;-81
2022/05/26 01:32:47;;;;;;;3.88;2.00;;;;;;;17.47;85.30;98357.59;5126740;28;20035;-85
2022/05/26 01:35:33;;;;;;;3.85;2.10;;;;;;;17.32;85.79;98367.22;5146624;28;20035;-83
2022/05/26 01:38:30;;;;;;;4.82;2.10;;;;;;;17.32;85.82;98353.38;5132621;28;20484;-84
2022/05/26 01:41:17;;;;;;;3.58;2.00;;;;;;;17.30;85.85;98365.94;5114685;28;20039;-85
2022/05/26 01:44:01;;;;;;;3.33;2.00;;;;;;;17.32;86.12;98369.97;5133074;28;20019;-85
2022/05/26 01:46:41;;;;;;;5.70;2.65;;;;;;;17.19;86.68;98368.25;5132898;28;20047;-85
2022/05/26 01:49:36;;;;;;;4.72;2.33;;;;;;;17.21;86.89;98370.66;5134610;28;20095;-83
2022/05/26 01:52:13;;;;;;;3.20;2.30;;;;;;;17.32;86.43;98372.75;5116682;28;20000;-85
2022/05/26 01:54:44;;;;;;;4.63;2.47;;;;;;;17.25;86.76;98379.94;5136565;28;20042;-83
2022/05/26 01:57:18;;;;;;;3.20;2.10;;;;;;;17.36;85.88;98376.50;5135273;28;20019;-81
2022/05/26 01:59:49;;;;;;;4.28;2.15;;;;;;;17.19;86.47;98359.94;5135400;28;20019;-80
2022/05/26 02:02:23;;;;;;;3.30;2.10;;;;;;;17.19;87.09;98370.19;5133963;28;20039;-85
2022/05/26 02:05:13;;;;;;;4.60;2.00;;;;;;;17.10;87.85;98384.81;5135187;28;20103;-83
2022/05/26 02:07:50;;;;;;;2.40;1.80;;;;;;;17.07;87.78;98371.66;5118281;28;20051;-85
2022/05/26 02:10:46;;;;;;;3.28;2.08;;;;;;;17.25;87.24;98377.16;5137240;27;20027;-84
2022/05/26 02:13:22;;;;;;;3.15;2.00;;;;;;;17.21;87.22;98370.66;5133013;27;20031;-85
2022/05/26 02:15:55;;;;;;;2.88;1.95;;;;;;;17.13;87.19;98367.59;5115751;28;20028;-86
2022/05/26 02:18:32;;;;;;;2.90;2.10;;;;;;;17.16;87.50;98357.03;5118541;28;20069;-85
2022/05/26 02:21:03;;;;;;;2.83;2.00;;;;;;;17.32;86.96;98369.97;5115583;28;20031;-85
2022/05/26 02:23:44;;;;;;;3.13;1.95;;;;;;;17.38;86.50;98367.88;5113232;28;20030;-85
2022/05/26 02:26:11;;;;;;;5.32;2.45;;;;;;;17.37;86.58;98371.78;5136652;28;20020;-85
2022/05/26 02:31:33;;;;;;;4.43;2.20;;;;;;;17.23;86.73;98341.53;5029649;28;20045;-83
2022/05/26 02:34:01;;;;;;;2.80;1.90;;;;;;;17.29;86.16;98351.28;5118496;28;20032;-84
2022/05/26 02:36:33;;;;;;;4.18;2.22;;;;;;;17.28;86.12;98355.22;5118944;28;20042;-84
2022/05/26 02:38:58;;;;;;;2.80;2.03;;;;;;;17.37;85.96;98377.31;5115322;28;20020;-86
2022/05/26 02:41:25;;;;;;;4.05;2.00;;;;;;;17.19;86.40;98365.47;5107334;28;20034;-84
2022/05/26 02:43:51;;;;;;;3.40;2.17;;;;;;;17.30;86.72;98374.22;5130724;27;20023;-85
2022/05/26 02:46:54;;;;;;;3.60;2.33;;;;;;;17.31;87.17;98370.31;5152304;27;20007;-85
2022/05/26 02:49:38;;;;;;;3.10;2.10;;;;;;;17.24;86.93;98372.78;5120422;28;20055;-82
2022/05/26 02:52:45;;;;;;;4.35;2.15;;;;;;;17.30;87.30;98385.28;5138077;28;20032;-85
2022/05/26 02:55:19;;;;;;;4.45;2.28;;;;;;;17.34;87.13;98383.50;5129569;28;20020;-84
2022/05/26 02:58:00;;;;;;;5.22;2.00;;;;;;;17.37;87.09;98388.38;5135570;28;20000;-83
2022/05/26 03:00:51;;;;;;;2.47;1.80;;;;;;;17.30;87.25;98380.56;5136057;28;20019;-86
2022/05/26 03:03:31;;;;;;;3.53;2.10;;;;;;;17.27;87.40;98388.72;5123048;28;20011;-81
2022/05/26 03:06:15;;;;;;;5.38;2.20;;;;;;;17.29;87.37;98392.75;5136477;28;20019;-83
2022/05/26 03:08:43;;;;;;;4.32;2.00;;;;;;;17.23;88.08;98394.06;5137329;28;20115;-86
2022/05/26 03:11:17;;;;;;;5.03;2.47;;;;;;;17.26;87.80;98393.41;5137539;28;20031;-85
2022/05/26 03:13:43;;;;;;;2.88;1.90;;;;;;;17.28;88.01;98390.34;5137476;28;20066;-85
2022/05/26 03:16:09;;;;;;;2.80;1.92;;;;;;;17.38;88.12;98412.94;5120186;28;20011;-83
2022/05/26 03:18:35;;;;;;;2.85;2.00;;;;;;;17.34;87.75;98405.63;5138645;27;20016;-84
2022/05/26 03:21:04;;;;;;;2.55;1.88;;;;;;;17.31;88.00;98409.03;5153227;27;20029;-82
2022/05/26 03:23:29;;;;;;;3.65;2.47;;;;;;;17.33;87.35;98418.63;5119307;28;20063;-84
2022/05/26 03:25:58;;;;;;;3.90;1.95;;;;;;;17.38;87.58;98432.31;5137419;28;20019;-86
2022/05/26 03:28:24;;;;;;;4.28;2.30;;;;;;;17.26;87.74;98415.53;5119641;28;20027;-84
2022/05/26 03:30:51;;;;;;;3.10;2.03;;;;;;;17.35;87.40;98435.72;5136625;28;20033;-85
2022/05/26 03:33:17;;;;;;;3.63;2.00;;;;;;;17.40;87.39;98434.72;5136897;28;20007;-86
2022/05/26 03:41:11;;;;;;;3.80;2.20;;;;;;;17.29;87.29;98439.78;5136614;28;20075;-82
2022/05/26 03:43:43;;;;;;;6.28;2.92;;;;;;;17.31;87.29;98453.28;5118412;28;20028;-84
2022/05/26 03:46:11;;;;;;;3.10;2.20;;;;;;;17.02;87.93;98415.25;5118600;28;20091;-87
2022/05/26 03:48:36;;;;;;;2.92;1.95;;;;;;;17.23;87.93;98443.84;5136476;28;20019;-85
2022/05/26 03:51:02;;;;;;;3.80;2.20;;;;;;;17.25;87.74;98435.25;5136199;28;20029;-84
2022/05/26 03:53:28;;;;;;;6.13;2.13;;;;;;;17.32;87.60;98446.63;5100951;28;20042;-85
2022/05/26 03:55:54;;;;;;;2.97;2.08;;;;;;;17.35;87.25;98448.75;5118647;28;20035;-84
2022/05/26 03:58:20;;;;;;;4.18;2.30;;;;;;;17.31;87.61;98451.34;5143116;27;20030;-86
2022/05/26 04:00:45;;;;;;;3.38;2.17;;;;;;;17.30;88.30;98457.19;5157300;27;20057;-84
2022/05/26 04:03:11;;;;;;;3.03;2.20;;;;;;;17.44;87.41;98460.59;5138540;27;20014;-81
2022/05/26 04:05:36;;;;;;;2.90;1.95;;;;;;;17.32;88.05;98447.41;5123308;27;20109;-85
2022/05/26 04:08:02;;;;;;;3.03;2.00;;;;;;;17.34;87.50;98456.22;5138444;27;20062;-84
2022/05/26 04:10:28;;;;;;;2.72;2.10;;;;;;;17.30;88.18;98465.47;5156675;27;20023;-84
2022/05/26 04:12:55;;;;;;;2.45;1.95;;;;;;;17.28;88.28;98462.25;5156684;27;20007;-83
2022/05/26 04:15:22;;;;;;;3.72;2.17;;;;;;;17.23;88.86;98456.88;5138301;27;20004;-82
2022/05/26 04:17:48;;;;;;;6.22;2.10;;;;;;;17.26;89.19;98467.28;5155726;27;20020;-83
2022/05/26 04:20:17;;;;;;;3.50;2.10;;;;;;;17.23;88.13;98470.72;5136767;27;20047;-86
2022/05/26 04:22:42;;;;;;;3.47;2.40;;;;;;;17.10;88.70;98478.81;5155265;27;20022;-85
2022/05/26 04:25:10;;;;;;;2.97;2.00;;;;;;;17.17;88.08;98483.03;5156111;27;20020;-86
2022/05/26 04:27:37;;;;;;;2.35;1.95;;;;;;;17.15;88.57;98472.31;5156603;27;20550;-86
2022/05/26 04:30:05;;;;;;;5.22;2.08;;;;;;;17.21;87.89;98479.31;5114560;27;20038;-85
2022/05/26 04:32:32;;;;;;;4.47;1.90;;;;;;;17.19;88.17;98469.72;5149011;27;20024;-84
2022/05/26 04:34:58;;;;;;;4.60;1.90;;;;;;;17.14;87.79;98470.69;5129715;28;20020;-83
2022/05/26 04:37:26;;;;;;;3.20;2.10;;;;;;;17.19;88.09;98470.53;5135017;27;20004;-81
2022/05/26 04:39:54;;;;;;;4.03;1.90;;;;;;;17.20;87.75;98482.44;5135407;28;20023;-83
2022/05/26 04:42:19;;;;;;;2.65;1.95;;;;;;;17.11;86.99;98488.75;5133980;28;20028;-86
2022/05/26 04:44:46;;;;;;;2.80;2.13;;;;;;;17.11;87.54;98469.41;5113831;28;20032;-83
2022/05/26 04:47:13;;;;;;;2.65;1.80;;;;;;;17.23;87.70;98473.47;5132730;28;20031;-84
2022/05/26 04:49:39;;;;;;;9.13;2.08;;;;;;;17.08;87.74;98481.09;5131178;28;20055;-85
2022/05/26 04:52:10;;;;;;;3.67;2.10;;;;;;;17.14;87.60;98468.75;5134179;28;20461;-85
2022/05/26 04:54:36;;;;;;;3.08;2.20;;;;;;;17.19;87.24;98480.78;5114815;28;20031;-74
2022/05/26 04:57:03;;;;;;;5.20;2.20;;;;;;;17.32;86.68;98491.66;5113322;28;20024;-74
2022/05/26 04:59:30;;;;;;;6.30;1.95;;;;;;;17.42;86.44;98488.56;5092624;28;20023;-74
2022/05/26 05:01:55;;;;;;;4.20;2.58;;;;;;;17.54;85.00;98491.47;5091738;28;20024;-74
2022/05/26 05:04:28;;;;;;;3.75;2.10;;;;;;;17.65;84.44;98497.53;5111786;28;20057;-75
2022/05/26 05:06:54;;;;;;;4.28;2.03;;;;;;;17.70;83.94;98502.88;5116951;28;20074;-78
2022/05/26 05:09:21;;;;;;;4.10;2.13;;;;;;;17.71;83.39;98510.06;5104995;28;20024;-81
2022/05/26 05:11:47;;;;;;;2.70;1.80;;;;;;;17.75;82.99;98511.03;5105737;28;20018;-78
2022/05/26 05:14:13;;;;;;;4.03;2.25;;;;;;;17.69;81.89;98506.81;5115940;28;20720;-79
2022/05/26 05:16:42;;;;;;;7.47;2.00;;;;;;;17.74;82.28;98523.25;5095742;28;20492;-78
2022/05/26 05:19:12;;;;;;;2.55;2.10;;;;;;;17.71;80.72;98515.59;5092160;28;20105;-79
2022/05/26 05:21:40;;;;;;;3.60;2.20;;;;;;;17.74;81.87;98520.47;5109320;28;20023;-77
2022/05/26 05:24:14;;;;;;;5.18;2.80;;;;;;;17.62;82.27;98518.38;5094485;28;20050;-77
2022/05/26 05:26:43;;;;;;;3.65;1.90;;;;;;;17.78;81.42;98526.97;5111356;28;20031;-79
2022/05/26 05:29:14;;;;;;;4.38;2.00;;;;;;;17.83;80.95;98523.22;5095554;28;20464;-79
2022/05/26 05:31:48;;;;;;;3.22;1.92;;;;;;;17.82;80.87;98527.97;5098553;28;20039;-76
2022/05/26 05:34:21;;;;;;;3.95;1.83;;;;;;;17.74;81.85;98531.53;5097418;28;20020;-79
2022/05/26 05:36:47;;;;;;;4.13;2.38;;;;;;;17.77;82.48;98527.28;5100493;27;20126;-82
2022/05/26 05:39:13;;;;;;;3.17;2.00;;;;;;;17.83;81.77;98529.56;5109722;27;20066;-82
2022/05/26 05:41:39;;;;;;;3.53;2.40;;;;;;;17.74;82.08;98534.31;5128818;27;20019;-80
2022/05/26 05:44:08;;;;;;;3.30;1.98;;;;;;;17.88;81.33;98528.59;5123367;27;20024;-79
2022/05/26 05:46:34;;;;;;;2.80;1.92;;;;;;;17.90;80.99;98520.75;5121097;27;20024;-82
2022/05/26 05:49:04;;;;;;;3.38;2.05;;;;;;;17.98;80.16;98520.72;5112182;28;20019;-81
2022/05/26 05:51:33;;;;;;;4.28;2.25;;;;;;;18.08;79.90;98525.09;5109901;28;20111;-82
2022/05/26 05:54:01;;;;;;;4.95;2.22;;;;;;;18.09;79.93;98521.22;5108838;28;20102;-81
2022/05/26 05:56:27;;;;;;;3.00;1.90;;;;;;;18.20;79.18;98517.75;5104704;28;20034;-80
2022/05/26 05:58:53;;;;;;;3.55;2.10;;;;;;;18.42;78.84;98524.97;5124341;28;20412;-81
2022/05/26 06:01:22;;;;;;;3.58;1.90;;;;;;;18.24;76.86;98519.84;5121023;28;20031;-81
2022/05/26 06:03:47;;;;;;;3.70;2.25;;;;;;;18.43;76.43;98525.81;5123177;28;20011;-82
2022/05/26 06:06:14;;;;;;;2.13;1.80;;;;;;;18.50;75.65;98529.72;5121189;28;20106;-82
2022/05/26 06:08:39;;;;;;;6.03;1.92;;;;;;;18.72;75.54;98539.72;5101942;28;20027;-80
2022/05/26 06:11:05;;;;;;;2.50;1.90;;;;;;;18.81;74.71;98543.25;5120643;28;20028;-79
2022/05/26 06:13:30;;;;;;;3.90;2.00;;;;;;;18.88;74.42;98548.28;5101186;28;20022;-83
2022/05/26 06:15:59;;;;;;;2.60;2.00;;;;;;;18.82;72.96;98544.88;5120128;27;20023;-77
2022/05/26 06:18:25;;;;;;;2.75;2.03;;;;;;;19.02;71.87;98555.19;5132850;27;20043;-84
2022/05/26 06:20:50;;;;;;;3.10;2.00;;;;;;;19.04;72.59;98552.91;5120858;27;20025;-83
2022/05/26 06:23:20;;;;;;;4.90;1.90;;;;;;;19.12;72.86;98538.16;5122864;27;20046;-84
2022/05/26 06:25:47;;;;;;;2.47;1.77;;;;;;;19.27;71.81;98545.06;5152140;27;20027;-83
2022/05/26 06:31:01;;;;;;;4.45;2.00;;;;;;;19.31;71.12;98545.22;5151450;27;20034;-83
2022/05/26 06:38:58;;;;;;;4.05;2.00;;;;;;;19.46;71.08;98550.19;5145986;27;20092;-84
2022/05/26 06:44:08;;;;;;;5.97;2.25;;;;;;;19.56;70.26;98541.44;5143064;27;20055;-84
2022/05/26 06:46:34;;;;;;;3.67;1.92;;;;;;;19.68;69.80;98535.94;5130861;27;20507;-84
2022/05/26 06:48:59;;;;;;;3.78;1.80;;;;;;;19.69;67.94;98540.34;5153486;27;20023;-84
2022/05/26 06:51:26;;;;;;;7.03;2.25;;;;;;;19.80;67.96;98540.75;5134641;27;20013;-85
2022/05/26 06:53:52;;;;;;;2.70;1.90;;;;;;;19.88;67.05;98549.00;5134598;27;20019;-83
2022/05/26 06:56:18;;;;;;;3.45;2.00;;;;;;;19.96;65.88;98561.97;5131652;27;20100;-82
2022/05/26 06:58:43;;;;;;;2.78;1.80;;;;;;;19.99;65.64;98554.91;5146658;27;20010;-82
2022/05/26 07:01:09;;;;;;;2.75;1.70;;;;;;;20.03;65.91;98551.13;5121654;27;20031;-82
2022/05/26 07:03:34;;;;;;;2.17;1.70;;;;;;;20.11;65.10;98560.53;5129025;28;20014;-83
2022/05/26 07:06:03;;;;;;;2.70;2.00;;;;;;;19.99;64.08;98555.75;5139077;27;20027;-83
2022/05/26 07:08:28;;;;;;;7.50;2.20;;;;;;;20.03;63.81;98559.47;5114781;28;20046;-84
2022/05/26 07:10:54;;;;;;;2.33;1.83;;;;;;;20.13;63.76;98559.03;5113901;27;20395;-83
2022/05/26 07:13:20;;;;;;;3.00;2.00;;;;;;;20.17;63.81;98557.19;5144537;27;20091;-84
2022/05/26 07:15:46;;;;;;;5.15;2.05;;;;;;;20.11;64.59;98564.09;5118654;27;20027;-83
2022/05/26 07:18:12;;;;;;;2.20;1.77;;;;;;;20.06;65.35;98567.13;5137169;27;20384;-82
2022/05/26 07:20:40;;;;;;;2.50;1.80;;;;;;;20.04;65.83;98569.44;5124323;27;20046;-84
2022/05/26 07:23:10;;;;;;;1.83;1.45;;;;;;;20.11;65.72;98569.66;5112061;27;20012;-75
2022/05/26 07:25:43;;;;;;;3.83;1.70;;;;;;;20.15;65.49;98570.59;5112637;27;20032;-75
2022/05/26 07:28:12;;;;;;;2.35;1.65;;;;;;;20.08;65.51;98578.69;5105450;27;20638;-76
2022/05/26 07:30:38;;;;;;;2.45;1.75;;;;;;;20.09;64.81;98582.28;5103979;27;20059;-75
2022/05/26 07:33:03;;;;;;;2.58;1.70;;;;;;;19.91;65.26;98564.16;5123936;27;20053;-74
2022/05/26 07:35:29;;;;;;;2.90;1.80;;;;;;;19.90;66.10;98573.63;5120800;27;20019;-74
2022/05/26 07:43:23;;;;;;;1.83;1.60;;;;;;;20.11;66.23;98580.00;5120564;27;20736;-74
2022/05/26 07:45:50;;;;;;;4.35;1.90;;;;;;;20.25;65.49;98578.53;5119536;27;20026;-75
2022/05/26 07:48:16;;;;;;;2.30;1.67;;;;;;;20.37;64.16;98576.94;5121726;27;20023;-75
2022/05/26 07:50:43;;;;;;;2.60;1.80;;;;;;;20.61;64.23;98579.78;5116618;27;20034;-78
2022/05/26 07:53:08;;;;;;;2.55;1.80;;;;;;;20.84;64.04;98572.59;5100114;27;20083;-80
2022/05/26 07:55:34;;;;;;;4.25;1.90;;;;;;;21.08;61.35;98575.38;5110414;27;20048;-77
2022/05/26 07:57:59;;;;;;;3.65;2.08;;;;;;;21.26;61.25;98581.53;5104040;27;20011;-78
2022/05/26 08:00:25;;;;;;;2.78;1.73;;;;;;;21.48;60.79;98585.81;5098605;27;20031;-76
2022/05/26 08:02:51;;;;;;;2.97;1.77;;;;;;;21.63;59.50;98565.56;5099996;27;20027;-76
2022/05/26 08:05:16;;;;;;;5.05;1.70;;;;;;;21.78;59.58;98576.78;5123625;27;20046;-75
2022/05/26 08:07:43;;;;;;;2.22;1.80;;;;;;;22.07;58.07;98588.75;5125158;27;20477;-79
2022/05/26 08:10:10;;;;;;;4.72;1.95;;;;;;;22.25;57.10;98576.94;5110694;27;20055;-82
2022/05/26 08:12:36;;;;;;;2.88;1.90;;;;;;;22.54;56.36;98584.09;5112924;27;20115;-79
2022/05/26 08:15:01;;;;;;;2.72;1.80;;;;;;;22.70;55.19;98595.28;5101973;27;20110;-79
2022/05/26 08:17:30;;;;;;;2.33;1.70;;;;;;;22.94;55.11;98597.91;5117197;27;20026;-80
2022/05/26 08:19:55;;;;;;;1.90;1.60;;;;;;;22.91;54.11;98604.19;5102447;28;20028;-79
2022/05/26 08:22:21;;;;;;;3.35;1.88;;;;;;;22.98;54.12;98606.34;5115051;27;20473;-78
2022/05/26 08:24:53;;;;;;;2.28;1.60;;;;;;;23.12;54.76;98603.94;5131898;27;20019;-86
2022/05/26 08:27:19;;;;;;;3.05;2.28;;;;;;;23.38;53.58;98612.53;5149268;27;20061;-85
2022/05/26 08:29:45;;;;;;;3.58;1.58;;;;;;;23.34;53.43;98614.41;5132782;27;20074;-81
2022/05/26 08:32:10;;;;;;;2.30;1.75;;;;;;;23.35;52.13;98610.47;5137078;27;20156;-81
2022/05/26 08:34:36;;;;;;;2.22;1.70;;;;;;;23.51;53.10;98618.84;5130633;27;20384;-77
2022/05/26 08:37:03;;;;;;;2.50;1.75;;;;;;;23.63;51.69;98622.31;5114698;27;20476;-73
2022/05/26 08:39:31;;;;;;;2.75;1.83;;;;;;;23.77;51.00;98624.63;5132031;27;20086;-78
2022/05/26 08:41:57;;;;;;;5.13;1.90;;;;;;;23.79;51.45;98614.69;5127638;28;20023;-83
2022/05/26 08:44:27;;;;;;;2.85;1.90;;;;;;;24.14;50.11;98625.84;5107646;27;20023;-80
2022/05/26 08:47:03;;;;;;;4.70;1.80;;;;;;;24.07;50.14;98622.06;5105493;27;20019;-80
2022/05/26 08:49:29;;;;;;;2.65;1.92;;;;;;;24.17;50.77;98618.72;5132090;27;20015;-78
2022/05/26 08:52:05;;;;;;;2.28;1.75;;;;;;;24.31;50.24;98621.78;5113730;27;20023;-75
2022/05/26 08:54:51;;;;;;;2.70;1.98;;;;;;;24.36;49.46;98619.50;5130277;27;20028;-79
2022/05/26 08:57:28;;;;;;;3.00;1.90;;;;;;;24.55;49.89;98615.06;5103854;27;20039;-77
2022/05/26 08:59:54;;;;;;;2.50;1.95;;;;;;;24.40;49.15;98611.97;5104003;27;20031;-78
2022/05/26 09:02:33;;;;;;;2.83;1.98;;;;;;;24.21;49.44;98608.41;5104288;28;20015;-74
2022/05/26 09:05:01;;;;;;;4.82;1.80;;;;;;;24.10;49.54;98598.94;5089842;28;20023;-74
2022/05/26 09:13:10;;;;;;;2.25;1.70;;;;;;;23.50;50.08;98594.84;5081853;28;20096;-75
2022/05/26 09:15:36;;;;;;;2.17;1.70;;;;;;;23.21;51.65;98596.16;5123433;28;20045;-74
2022/05/26 09:18:14;;;;;;;4.05;2.15;;;;;;;23.11;51.68;98605.09;5119933;28;20027;-76
2022/05/26 09:20:41;;;;;;;2.38;1.80;;;;;;;23.14;52.08;98598.78;5095186;28;20146;-74
2022/05/26 09:23:09;;;;;;;2.20;1.55;;;;;;;23.34;51.83;98601.25;5113253;28;20027;-75
2022/05/26 09:25:41;;;;;;;2.83;1.80;;;;;;;23.71;51.48;98596.13;5104616;28;20135;-76
2022/05/26 09:28:09;;;;;;;2.60;1.80;;;;;;;23.86;50.45;98597.28;5099595;28;20027;-75
2022/05/26 09:30:36;;;;;;;2.80;2.00;;;;;;;23.02;51.35;98601.69;5116761;28;20020;-75
2022/05/26 09:33:15;;;;;;;3.25;2.00;;;;;;;23.06;52.02;98597.78;5117196;28;20020;-76
2022/05/26 09:35:41;;;;;;;4.15;2.35;;;;;;;23.19;52.04;98574.19;5118056;28;20683;-75
2022/05/26 09:38:16;;;;;;;2.03;1.75;;;;;;;23.55;50.85;98594.59;5101009;28;20019;-76
2022/05/26 09:40:45;;;;;;;4.20;1.85;;;;;;;23.58;50.72;98585.47;5117455;28;20023;-75
2022/05/26 09:43:17;;;;;;;2.75;1.90;;;;;;;23.85;50.15;98598.44;5117453;28;20103;-75
2022/05/26 09:45:46;;;;;;;3.00;1.92;;;;;;;23.86;50.29;98588.88;5099302;28;20052;-76
2022/05/26 09:48:30;;;;;;;3.55;1.80;;;;;;;23.94;49.95;98582.25;5117558;28;20045;-74
2022/05/26 09:51:30;;;;;;;3.30;2.00;;;;;;;23.95;49.32;98578.28;5130396;28;20072;-74
2022/05/26 09:53:56;;;;;;;5.07;2.00;;;;;;;23.79;49.46;98585.94;5111556;28;20034;-74
2022/05/26 09:56:31;;;;;;;6.22;2.10;;;;;;;23.63;50.33;98574.00;5102472;28;20032;-74
2022/05/26 09:58:57;;;;;;;3.05;1.80;;;;;;;23.79;50.13;98575.56;5120681;28;20057;-75
2022/05/26 10:01:26;;;;;;;2.47;1.98;;;;;;;23.85;49.76;98579.69;5112069;28;20076;-74
2022/05/26 10:04:13;;;;;;;3.35;1.90;;;;;;;23.80;50.45;98563.22;5106116;28;20034;-76
2022/05/26 10:07:01;;;;;;;2.70;1.80;;;;;;;23.55;50.80;98575.84;5107582;28;20043;-74
2022/05/26 10:09:44;;;;;;;3.08;2.00;;;;;;;23.20;52.09;98581.41;5121193;28;20114;-74
2022/05/26 10:12:28;;;;;;;4.72;1.83;;;;;;;23.16;51.70;98569.34;5125207;28;20027;-74
2022/05/26 10:15:02;;;;;;;4.03;2.15;;;;;;;23.20;52.20;98569.41;5123897;28;20020;-86
2022/05/26 10:17:50;;;;;;;3.27;1.90;;;;;;;23.17;52.48;98570.16;5127050;27;20035;-80
2022/05/26 10:20:28;;;;;;;2.63;2.00;;;;;;;23.25;51.83;98575.53;5132288;27;20048;-81
2022/05/26 10:23:08;;;;;;;4.55;1.90;;;;;;;23.15;51.75;98566.91;5122354;28;20024;-81
2022/05/26 10:25:52;;;;;;;2.50;1.80;;;;;;;23.01;51.92;98561.78;5118934;28;20024;-79
2022/05/26 10:28:40;;;;;;;8.52;2.08;;;;;;;22.79;52.83;98568.03;5124644;28;20036;-82
2022/05/26 10:31:41;;;;;;;2.28;1.88;;;;;;;22.65;53.26;98562.88;5095920;27;20039;-86
2022/05/26 10:34:28;;;;;;;2.53;1.83;;;;;;;22.41;53.83;98561.06;5143864;27;20039;-83
2022/05/26 10:37:32;;;;;;;2.50;1.73;;;;;;;22.38;54.47;98553.41;5123758;27;20052;-79
2022/05/26 10:40:09;;;;;;;2.95;1.90;;;;;;;22.41;54.47;98557.44;5136993;27;20031;-83
2022/05/26 10:42:38;;;;;;;3.42;1.85;;;;;;;22.43;54.46;98552.31;5155264;27;20019;-82
2022/05/26 10:45:24;;;;;;;2.40;1.63;;;;;;;22.47;54.51;98555.19;5136915;27;20019;-83
2022/05/26 10:48:00;;;;;;;3.30;2.38;;;;;;;22.42;54.71;98554.31;5154823;27;20031;-85
2022/05/26 10:50:30;;;;;;;2.42;1.85;;;;;;;22.48;54.44;98559.63;5154703;27;20028;-83
2022/05/26 10:53:08;;;;;;;2.47;1.70;;;;;;;22.50;55.02;98551.69;5135941;27;20031;-84
2022/05/26 10:55:44;;;;;;;3.10;2.08;;;;;;;22.55;54.89;98554.22;5123540;27;20023;-83
2022/05/26 10:58:23;;;;;;;5.28;2.00;;;;;;;22.68;54.68;98564.16;5117810;27;20035;-80
2022/05/26 11:00:54;;;;;;;2.45;1.98;;;;;;;22.66;54.58;98558.94;5134008;27;20079;-82
2022/05/26 11:03:31;;;;;;;4.60;2.00;;;;;;;22.59;54.68;98549.53;5129369;27;20042;-84
2022/05/26 11:06:05;;;;;;;4.20;1.75;;;;;;;22.45;54.65;98549.19;5120187;27;20023;-85
2022/05/26 11:09:26;;;;;;;3.83;1.90;;;;;;;22.50;54.60;98538.56;5116403;28;20027;-85
2022/05/26 11:11:58;;;;;;;3.75;2.15;;;;;;;22.48;54.69;98545.66;5036413;28;20037;-82
2022/05/26 11:17:44;;;;;;;2.83;1.90;;;;;;;22.24;57.22;98544.66;5131390;28;20038;-83
2022/05/26 11:20:12;;;;;;;5.20;2.20;;;;;;;22.26;56.22;98552.66;5112820;27;20023;-83
2022/05/26 11:22:41;;;;;;;3.30;1.80;;;;;;;22.10;57.35;98544.28;5110184;28;20556;-84
2022/05/26 11:25:09;;;;;;;2.60;2.00;;;;;;;22.08;56.90;98552.19;5124788;28;20118;-80
2022/05/26 11:27:41;;;;;;;3.50;1.90;;;;;;;22.16;56.92;98547.59;5121680;27;20031;-78
2022/05/26 11:36:07;;;;;;;3.92;2.00;;;;;;;22.24;56.88;98539.06;5114845;27;20481;-81
2022/05/26 11:38:28;;;;;;;2.88;1.83;;;;;;;22.15;55.90;98535.63;5140387;27;20069;-84
2022/05/26 11:41:06;;;;;;;3.15;1.80;;;;;;;22.07;56.61;98519.09;5144993;27;19999;-84
2022/05/26 11:43:57;;;;;;;2.75;1.90;;;;;;;22.18;56.63;98520.16;5135245;27;20012;-85
2022/05/26 11:46:56;;;;;;;2.13;1.73;;;;;;;22.32;57.09;98521.38;5127538;27;20023;-84
2022/05/26 11:49:47;;;;;;;2.88;1.70;;;;;;;22.59;56.90;98518.84;5120562;27;20034;-86
2022/05/26 11:52:47;;;;;;;3.72;1.88;;;;;;;22.72;55.64;98523.19;5103983;27;20027;-88
2022/05/26 11:55:15;;;;;;;2.28;1.85;;;;;;;22.73;55.51;98525.63;5141057;27;20297;-84
2022/05/26 11:57:40;;;;;;;2.70;1.90;;;;;;;22.94;55.01;98534.53;5123131;27;20031;-84
2022/05/26 12:00:21;;;;;;;2.83;2.00;;;;;;;23.00;54.34;98537.03;5123360;27;20035;-85
2022/05/26 12:02:52;;;;;;;2.05;1.67;;;;;;;23.08;54.85;98536.03;5126922;27;20011;-87
2022/05/26 12:05:30;;;;;;;3.03;1.90;;;;;;;23.14;55.03;98527.03;5105525;27;20027;-86
2022/05/26 12:07:57;;;;;;;4.53;2.00;;;;;;;23.27;54.21;98513.75;5143210;27;20031;-85
2022/05/26 12:10:27;;;;;;;5.43;2.10;;;;;;;23.28;53.30;98516.16;5147232;27;20023;-81
2022/05/26 12:13:20;;;;;;;3.60;1.85;;;;;;;23.20;53.26;98500.44;5123140;27;20151;-84
2022/05/26 12:16:04;;;;;;;2.30;1.80;;;;;;;23.29;53.32;98509.41;5144505;27;20054;-83
2022/05/26 12:19:02;;;;;;;3.42;2.10;;;;;;;23.31;53.13;98493.09;5142385;27;20099;-80
2022/05/26 12:21:42;;;;;;;2.67;1.70;;;;;;;23.45;52.55;98498.22;5123336;27;20103;-82
2022/05/26 12:24:32;;;;;;;3.03;2.05;;;;;;;23.54;52.13;98500.78;5122863;27;20098;-83
2022/05/26 12:27:00;;;;;;;6.18;2.17;;;;;;;23.53;51.94;98499.16;5142922;27;20027;-85
2022/05/26 12:30:02;;;;;;;3.65;1.85;;;;;;;23.36;51.11;98487.22;5134796;27;20486;-81
2022/05/26 12:32:37;;;;;;;2.92;2.08;;;;;;;23.03;52.70;98486.06;5121538;27;20493;-82
2022/05/26 12:35:24;;;;;;;3.22;2.00;;;;;;;23.02;54.05;98490.84;5128325;27;20023;-81
2022/05/26 12:38:32;;;;;;;3.50;2.05;;;;;;;23.19;53.96;98492.41;5135684;27;20039;-84